Time;durP1;ratioP1;P1;durP2;ratioP2;P2;SDS_P1;SDS_P2;PMS_P1;PMS_P2;Temp;Humidity;BMP_temperature;BMP_pressure;BME280_temperature;BME280_humidity;BME280_pressure;Samples;Min_cycle;Max_cycle;Signal;HPM_P1;HPM_P2
2023/07/26 00:02:31;;;;;;;;;;;16.20;99.90;;;;;;8385393;28;19928;-71
2023/07/26 00:06:34;;;;;;;;;;;16.00;99.90;;;;;;8347249;28;20288;-71
2023/07/26 00:15:39;;;;;;;;;;;15.90;99.90;;;;;;8382052;28;19942;-71
2023/07/26 00:19:41;;;;;;;;;;;15.80;99.90;;;;;;8366742;28;19986;-71
2023/07/26 00:23:43;;;;;;;;;;;15.80;99.90;;;;;;8374386;28;19947;-71
2023/07/26 00:27:44;;;;;;;;;;;15.80;99.90;;;;;;8359228;28;20295;-71
2023/07/26 00:31:46;;;;;;;;;;;15.80;99.90;;;;;;8391619;28;19928;-71
2023/07/26 00:35:47;;;;;;;;;;;15.70;99.90;;;;;;8379904;28;19931;-71
2023/07/26 00:39:49;;;;;;;;;;;15.60;99.90;;;;;;8388473;28;19936;-71
2023/07/26 00:43:51;;;;;;;;;;;15.60;99.90;;;;;;8383909;28;19928;-71
2023/07/26 00:47:53;;;;;;;;;;;15.50;99.90;;;;;;8376998;28;19924;-71
2023/07/26 00:51:54;;;;;;;;;;;15.40;99.90;;;;;;8388729;28;19942;-71
2023/07/26 00:55:56;;;;;;;;;;;15.40;99.90;;;;;;8387264;28;19985;-71
2023/07/26 00:59:58;;;;;;;;;;;15.30;99.90;;;;;;8408764;28;19946;-71
2023/07/26 01:03:59;;;;;;;;;;;15.20;99.90;;;;;;8364788;28;19924;-71
2023/07/26 01:08:07;;;;;;;;;;;15.20;99.90;;;;;;8366219;28;19928;-71
2023/07/26 01:12:13;;;;;;;;;;;15.00;99.90;;;;;;8381278;28;19924;-71
2023/07/26 01:16:15;;;;;;;;;;;15.00;99.90;;;;;;8395761;28;19995;-70
2023/07/26 01:20:17;;;;;;;;;;;14.90;99.90;;;;;;8382522;28;19931;-71
2023/07/26 01:24:18;;;;;;;;;;;14.90;99.90;;;;;;8364643;28;19925;-71
2023/07/26 01:28:23;;;;;;;;;;;14.80;99.90;;;;;;8378228;28;20338;-71
2023/07/26 01:32:27;;;;;;;;;;;14.70;99.90;;;;;;8370401;28;20435;-71
2023/07/26 01:36:31;;;;;;;;;;;14.70;99.90;;;;;;8373263;28;20375;-71
2023/07/26 01:40:33;;;;;;;;;;;14.60;99.90;;;;;;8371989;28;19933;-71
2023/07/26 01:44:36;;;;;;;;;;;14.50;99.90;;;;;;8380578;28;20421;-71
2023/07/26 01:48:38;;;;;;;;;;;14.40;99.90;;;;;;8386873;28;19932;-71
2023/07/26 01:52:39;;;;;;;;;;;14.40;99.90;;;;;;8389736;28;19925;-71
2023/07/26 01:56:41;;;;;;;;;;;14.30;99.90;;;;;;8379624;28;20434;-71
2023/07/26 02:00:43;;;;;;;;;;;14.20;99.90;;;;;;8375646;28;19974;-71
2023/07/26 02:04:44;;;;;;;;;;;14.20;99.90;;;;;;8386051;28;19925;-71
2023/07/26 02:08:46;;;;;;;;;;;14.10;99.90;;;;;;8381745;28;19931;-71
2023/07/26 02:12:48;;;;;;;;;;;14.10;99.90;;;;;;8378010;28;19924;-71
2023/07/26 02:16:49;;;;;;;;;;;14.00;99.90;;;;;;8383472;28;19939;-71
2023/07/26 02:20:51;;;;;;;;;;;13.90;99.90;;;;;;8373069;28;19950;-70
2023/07/26 02:24:53;;;;;;;;;;;13.90;99.90;;;;;;8353973;28;20189;-70
2023/07/26 02:28:54;;;;;;;;;;;13.90;99.90;;;;;;8374324;28;19928;-70
2023/07/26 02:32:56;;;;;;;;;;;13.80;99.90;;;;;;8367965;28;19925;-70
2023/07/26 02:36:58;;;;;;;;;;;13.70;99.90;;;;;;8386307;28;20390;-71
2023/07/26 02:51:05;;;;;;;;;;;13.60;99.90;;;;;;8367145;28;19979;-70
2023/07/26 02:55:07;;;;;;;;;;;13.50;99.90;;;;;;8362236;28;19931;-70
2023/07/26 02:59:09;;;;;;;;;;;13.40;99.90;;;;;;8382366;28;19966;-71
2023/07/26 03:03:11;;;;;;;;;;;13.40;99.90;;;;;;8392657;28;20326;-71
2023/07/26 03:07:13;;;;;;;;;;;13.30;99.90;;;;;;8393148;28;20007;-71
2023/07/26 03:11:14;;;;;;;;;;;13.30;99.90;;;;;;8396913;28;19924;-71
2023/07/26 03:15:16;;;;;;;;;;;13.20;99.90;;;;;;8389150;28;19974;-71
2023/07/26 03:19:17;;;;;;;;;;;13.20;99.90;;;;;;8399171;28;20329;-71
2023/07/26 03:23:19;;;;;;;;;;;13.20;99.90;;;;;;8385534;28;19931;-71
2023/07/26 03:27:21;;;;;;;;;;;13.20;99.90;;;;;;8375468;28;19928;-71
2023/07/26 03:31:25;;;;;;;;;;;13.10;99.90;;;;;;8386030;28;19924;-71
2023/07/26 03:35:26;;;;;;;;;;;13.10;99.90;;;;;;8388238;28;19947;-70
2023/07/26 03:39:31;;;;;;;;;;;13.00;99.90;;;;;;8393912;28;19967;-70
2023/07/26 03:43:32;;;;;;;;;;;13.00;99.90;;;;;;8397205;28;20024;-71
2023/07/26 03:47:34;;;;;;;;;;;13.00;99.90;;;;;;8373416;28;19926;-71
2023/07/26 03:51:36;;;;;;;;;;;13.00;99.90;;;;;;8381927;28;19977;-71
2023/07/26 03:55:37;;;;;;;;;;;12.90;99.90;;;;;;8373127;28;20002;-71
2023/07/26 03:59:39;;;;;;;;;;;12.90;99.90;;;;;;8385089;28;19947;-71
2023/07/26 04:03:40;;;;;;;;;;;12.90;99.90;;;;;;8388402;28;19928;-71
2023/07/26 04:07:42;;;;;;;;;;;12.90;99.90;;;;;;8386533;28;19925;-71
2023/07/26 04:11:44;;;;;;;;;;;12.90;99.90;;;;;;8394150;28;19969;-71
2023/07/26 04:15:45;;;;;;;;;;;12.90;99.90;;;;;;8365101;28;19925;-71
2023/07/26 04:19:47;;;;;;;;;;;12.90;99.90;;;;;;8382806;28;19925;-71
2023/07/26 04:23:49;;;;;;;;;;;12.90;99.90;;;;;;8354104;28;20307;-70
2023/07/26 04:27:50;;;;;;;;;;;12.90;99.90;;;;;;8375800;28;20349;-70
2023/07/26 04:31:52;;;;;;;;;;;12.90;99.90;;;;;;8385243;28;19979;-70
2023/07/26 04:35:54;;;;;;;;;;;12.90;99.90;;;;;;8394062;28;19924;-70
2023/07/26 04:39:55;;;;;;;;;;;13.00;99.90;;;;;;8374678;28;20342;-70
2023/07/26 04:43:57;;;;;;;;;;;13.00;99.90;;;;;;8373808;28;19924;-70
2023/07/26 04:58:09;;;;;;;;;;;13.20;99.90;;;;;;8375267;28;19946;-70
2023/07/26 05:02:10;;;;;;;;;;;13.30;99.90;;;;;;8386274;28;19932;-70
2023/07/26 05:06:12;;;;;;;;;;;13.40;99.90;;;;;;8392975;28;20368;-70
2023/07/26 05:10:14;;;;;;;;;;;13.50;99.90;;;;;;8380754;28;19978;-70
2023/07/26 05:14:17;;;;;;;;;;;13.60;99.90;;;;;;8365687;28;19933;-70
2023/07/26 05:18:18;;;;;;;;;;;13.70;99.90;;;;;;8371892;28;19924;-71
2023/07/26 05:22:20;;;;;;;;;;;13.80;99.90;;;;;;8375140;28;19978;-70
2023/07/26 05:26:22;;;;;;;;;;;13.90;99.90;;;;;;8360674;28;19928;-70
2023/07/26 05:30:23;;;;;;;;;;;14.00;99.90;;;;;;8354143;28;19932;-70
2023/07/26 05:34:28;;;;;;;;;;;14.10;99.90;;;;;;8362760;28;20342;-70
2023/07/26 05:38:29;;;;;;;;;;;14.20;99.90;;;;;;8376818;28;19928;-70
2023/07/26 05:42:31;;;;;;;;;;;14.30;99.90;;;;;;8383961;28;20376;-70
2023/07/26 05:46:33;;;;;;;;;;;14.40;99.90;;;;;;8388914;28;19924;-70
2023/07/26 05:50:35;;;;;;;;;;;14.50;99.90;;;;;;8390367;28;19928;-70
2023/07/26 05:54:37;;;;;;;;;;;14.60;99.90;;;;;;8369387;28;19951;-70
2023/07/26 05:58:38;;;;;;;;;;;14.70;99.90;;;;;;8371695;28;19924;-71
2023/07/26 06:02:40;;;;;;;;;;;14.70;99.90;;;;;;8366884;28;19983;-71
2023/07/26 06:06:42;;;;;;;;;;;14.70;99.90;;;;;;8383515;28;20367;-71
2023/07/26 06:10:43;;;;;;;;;;;14.70;99.90;;;;;;8380404;28;19961;-71
2023/07/26 06:14:45;;;;;;;;;;;14.70;99.90;;;;;;8388968;28;19928;-71
2023/07/26 06:18:47;;;;;;;;;;;14.70;99.90;;;;;;8374308;28;19947;-71
2023/07/26 06:22:48;;;;;;;;;;;14.70;99.90;;;;;;8381372;28;20347;-71
2023/07/26 06:26:53;;;;;;;;;;;14.70;99.90;;;;;;8387550;28;20299;-71
2023/07/26 06:30:55;;;;;;;;;;;14.70;99.90;;;;;;8385006;28;19925;-71
2023/07/26 06:34:57;;;;;;;;;;;14.70;99.90;;;;;;8391643;28;20015;-72
2023/07/26 06:38:59;;;;;;;;;;;14.70;99.90;;;;;;8359582;28;20284;-72
2023/07/26 06:43:01;;;;;;;;;;;14.60;99.90;;;;;;8372437;28;20296;-71
2023/07/26 06:47:02;;;;;;;;;;;14.50;99.90;;;;;;8368296;28;19929;-71
2023/07/26 06:51:04;;;;;;;;;;;14.30;99.90;;;;;;8343173;28;19971;-71
2023/07/26 06:55:06;;;;;;;;;;;14.20;99.90;;;;;;8383606;28;19931;-71
2023/07/26 06:59:12;;;;;;;;;;;14.10;99.90;;;;;;8386709;28;20138;-71
2023/07/26 07:03:13;;;;;;;;;;;14.10;99.90;;;;;;8380008;28;19931;-71
2023/07/26 07:07:15;;;;;;;;;;;14.10;99.90;;;;;;8374424;28;19928;-71
2023/07/26 07:11:17;;;;;;;;;;;14.10;99.90;;;;;;8369099;28;19929;-71
2023/07/26 07:15:19;;;;;;;;;;;14.10;99.90;;;;;;8376983;28;20398;-71
2023/07/26 07:19:20;;;;;;;;;;;14.10;99.90;;;;;;8389363;28;19928;-71
2023/07/26 07:23:22;;;;;;;;;;;14.10;99.90;;;;;;8380209;28;19936;-71
2023/07/26 07:27:24;;;;;;;;;;;14.20;99.90;;;;;;8383084;28;19954;-71
2023/07/26 07:31:25;;;;;;;;;;;14.30;99.90;;;;;;8379184;28;20342;-71
2023/07/26 07:35:27;;;;;;;;;;;14.40;99.90;;;;;;8380499;28;19924;-71
2023/07/26 07:39:30;;;;;;;;;;;14.60;99.90;;;;;;8397357;28;19925;-71
2023/07/26 07:43:31;;;;;;;;;;;14.80;99.90;;;;;;8394834;28;19986;-71
2023/07/26 07:47:33;;;;;;;;;;;15.00;99.90;;;;;;8373126;28;20276;-71
2023/07/26 07:51:35;;;;;;;;;;;15.20;99.90;;;;;;8382202;28;19924;-71
2023/07/26 07:55:37;;;;;;;;;;;15.30;99.90;;;;;;8369817;28;20387;-71
2023/07/26 07:59:38;;;;;;;;;;;15.40;99.90;;;;;;8384650;28;19924;-71
2023/07/26 08:03:40;;;;;;;;;;;15.60;99.90;;;;;;8387966;28;19931;-71
2023/07/26 08:07:42;;;;;;;;;;;15.70;99.90;;;;;;8342383;28;19948;-71
2023/07/26 08:11:43;;;;;;;;;;;15.70;99.90;;;;;;8332072;28;19933;-71
2023/07/26 08:15:45;;;;;;;;;;;15.80;99.90;;;;;;8331220;28;19983;-71
2023/07/26 08:19:47;;;;;;;;;;;15.90;99.90;;;;;;8332609;28;19983;-71
2023/07/26 08:23:48;;;;;;;;;;;15.90;99.90;;;;;;8340340;28;20284;-71
2023/07/26 08:27:50;;;;;;;;;;;16.00;99.90;;;;;;8349744;28;19991;-71
2023/07/26 08:31:52;;;;;;;;;;;16.10;99.90;;;;;;8333318;28;19932;-72
2023/07/26 08:35:54;;;;;;;;;;;16.20;99.90;;;;;;8334439;28;19928;-71
2023/07/26 08:39:55;;;;;;;;;;;16.30;99.90;;;;;;8335468;28;19947;-71
2023/07/26 08:43:58;;;;;;;;;;;16.40;99.90;;;;;;8351288;28;19933;-71
2023/07/26 08:48:01;;;;;;;;;;;16.50;99.90;;;;;;8334414;28;19925;-71
2023/07/26 08:52:03;;;;;;;;;;;16.60;99.90;;;;;;8333151;28;19925;-71
2023/07/26 08:56:06;;;;;;;;;;;16.80;99.90;;;;;;8333582;28;19929;-71
2023/07/26 09:00:08;;;;;;;;;;;16.90;99.90;;;;;;8330839;28;19925;-71
2023/07/26 09:04:10;;;;;;;;;;;17.00;99.90;;;;;;8335057;28;19929;-72
2023/07/26 09:08:12;;;;;;;;;;;17.00;99.90;;;;;;8352158;28;19975;-71
2023/07/26 09:12:24;;;;;;;;;;;17.00;99.90;;;;;;8337209;28;19929;-71
2023/07/26 09:16:27;;;;;;;;;;;17.10;99.90;;;;;;8309705;28;20315;-71
2023/07/26 09:20:30;;;;;;;;;;;17.20;99.90;;;;;;8341406;28;19925;-71
2023/07/26 09:34:39;;;;;;;;;;;17.20;99.90;;;;;;8330116;28;20266;-71
2023/07/26 09:38:42;;;;;;;;;;;17.20;99.90;;;;;;8328258;28;19936;-71
2023/07/26 09:42:46;;;;;;;;;;;17.30;99.90;;;;;;8345883;28;20248;-71
2023/07/26 09:46:48;;;;;;;;;;;17.20;99.90;;;;;;8347039;28;19964;-71
2023/07/26 09:50:51;;;;;;;;;;;17.20;99.90;;;;;;8326781;28;19956;-71
2023/07/26 09:54:53;;;;;;;;;;;17.10;99.90;;;;;;8350075;28;19928;-71
2023/07/26 09:58:56;;;;;;;;;;;17.10;99.90;;;;;;8327074;28;20360;-71
2023/07/26 10:03:07;;;;;;;;;;;17.10;99.90;;;;;;8315077;28;19925;-71
2023/07/26 10:07:11;;;;;;;;;;;17.30;99.90;;;;;;8330600;28;19943;-71
2023/07/26 10:11:14;;;;;;;;;;;17.40;99.90;;;;;;8327733;28;19929;-71
2023/07/26 10:15:16;;;;;;;;;;;17.70;99.90;;;;;;8330466;28;20257;-71
2023/07/26 10:19:18;;;;;;;;;;;17.80;99.90;;;;;;8346450;28;19925;-71
2023/07/26 10:23:20;;;;;;;;;;;17.90;99.90;;;;;;8329989;28;20481;-71
2023/07/26 10:27:22;;;;;;;;;;;18.00;99.90;;;;;;8332951;28;20366;-71
2023/07/26 10:31:24;;;;;;;;;;;18.10;99.90;;;;;;8331126;28;19928;-71
2023/07/26 10:35:27;;;;;;;;;;;18.20;99.90;;;;;;8324807;28;20410;-71
2023/07/26 10:39:32;;;;;;;;;;;18.20;99.90;;;;;;8327269;28;19933;-71
2023/07/26 10:43:38;;;;;;;;;;;18.20;99.90;;;;;;8328267;28;19929;-71
2023/07/26 10:47:49;;;;;;;;;;;18.20;99.90;;;;;;8334155;28;19931;-71
2023/07/26 10:51:52;;;;;;;;;;;18.30;99.90;;;;;;8344103;28;19931;-71
2023/07/26 10:56:05;;;;;;;;;;;18.40;99.90;;;;;;8326091;28;20289;-71
2023/07/26 11:00:10;;;;;;;;;;;18.40;99.90;;;;;;8325937;28;19933;-71
2023/07/26 11:04:19;;;;;;;;;;;18.60;99.90;;;;;;8334543;28;19924;-70
2023/07/26 11:13:28;;;;;;;;;;;18.90;99.90;;;;;;8319330;28;19999;-71
2023/07/26 11:17:30;;;;;;;;;;;19.00;99.90;;;;;;8323250;28;19932;-71
2023/07/26 11:21:34;;;;;;;;;;;19.10;99.90;;;;;;8330506;28;19925;-71
2023/07/26 11:25:36;;;;;;;;;;;19.20;99.90;;;;;;8330365;28;19925;-71
2023/07/26 11:29:38;;;;;;;;;;;19.10;99.90;;;;;;8332135;28;19925;-71
2023/07/26 11:33:40;;;;;;;;;;;19.20;99.90;;;;;;8340946;28;19929;-71
2023/07/26 11:37:55;;;;;;;;;;;19.30;99.90;;;;;;8334297;28;19929;-71
2023/07/26 11:41:56;;;;;;;;;;;19.40;99.90;;;;;;8323610;28;19944;-71
2023/07/26 11:45:58;;;;;;;;;;;19.20;99.90;;;;;;8331707;28;19924;-71
2023/07/26 11:50:02;;;;;;;;;;;19.20;99.90;;;;;;8337756;28;19924;-71
2023/07/26 11:54:06;;;;;;;;;;;19.30;99.90;;;;;;8327154;28;19979;-71
2023/07/26 11:58:09;;;;;;;;;;;19.20;99.90;;;;;;8330609;28;19936;-71
2023/07/26 12:02:11;;;;;;;;;;;19.20;99.90;;;;;;8323691;28;20312;-71
2023/07/26 12:06:13;;;;;;;;;;;19.30;99.90;;;;;;8348579;28;19970;-71
2023/07/26 12:10:26;;;;;;;;;;;19.30;99.90;;;;;;8335963;28;20055;-71
2023/07/26 12:14:33;;;;;;;;;;;19.30;99.90;;;;;;8334595;28;19975;-71
2023/07/26 12:18:35;;;;;;;;;;;19.40;99.90;;;;;;8333819;28;20376;-71
2023/07/26 12:22:48;;;;;;;;;;;19.30;99.90;;;;;;8333396;28;19934;-71
2023/07/26 12:26:51;;;;;;;;;;;19.30;99.90;;;;;;8343737;28;19925;-71
2023/07/26 12:30:54;;;;;;;;;;;19.30;99.90;;;;;;8329304;28;19924;-71
2023/07/26 12:34:56;;;;;;;;;;;19.20;99.90;;;;;;8332055;28;19925;-71
2023/07/26 12:38:58;;;;;;;;;;;19.20;99.90;;;;;;8331870;28;19925;-71
2023/07/26 12:43:00;;;;;;;;;;;19.10;99.90;;;;;;8328800;28;19933;-71
2023/07/26 12:47:02;;;;;;;;;;;19.20;99.90;;;;;;8333716;28;19925;-71
2023/07/26 12:51:24;;;;;;;;;;;19.30;99.90;;;;;;8333659;28;19928;-71
2023/07/26 12:55:26;;;;;;;;;;;19.40;99.90;;;;;;8330880;28;19976;-71
2023/07/26 12:59:28;;;;;;;;;;;19.50;99.90;;;;;;8328238;28;20244;-71
2023/07/26 13:03:29;;;;;;;;;;;19.50;99.90;;;;;;8332399;28;19929;-71
2023/07/26 13:07:31;;;;;;;;;;;19.60;99.90;;;;;;8336287;28;19929;-71
2023/07/26 13:11:33;;;;;;;;;;;19.70;99.90;;;;;;8328330;28;19925;-71
2023/07/26 13:15:35;;;;;;;;;;;19.60;99.90;;;;;;8348589;28;19952;-70
2023/07/26 13:19:37;;;;;;;;;;;19.60;99.90;;;;;;8327366;28;19929;-71
2023/07/26 13:23:38;;;;;;;;;;;19.80;99.90;;;;;;8329125;28;20365;-71
2023/07/26 13:27:41;;;;;;;;;;;19.90;99.90;;;;;;8335636;28;20501;-70
2023/07/26 13:31:43;;;;;;;;;;;19.90;99.90;;;;;;8341866;28;19925;-71
2023/07/26 13:35:44;;;;;;;;;;;19.90;99.90;;;;;;8331994;28;19948;-71
2023/07/26 13:39:46;;;;;;;;;;;19.90;99.90;;;;;;8332734;28;19928;-71
2023/07/26 13:43:48;;;;;;;;;;;19.90;99.90;;;;;;8333914;28;19937;-71
2023/07/26 13:47:50;;;;;;;;;;;19.90;99.90;;;;;;8332133;28;19929;-71
2023/07/26 13:51:51;;;;;;;;;;;19.80;99.90;;;;;;8328674;28;19929;-71
2023/07/26 13:55:53;;;;;;;;;;;19.70;99.90;;;;;;8329758;28;19925;-71
2023/07/26 14:04:58;;;;;;;;;;;19.80;99.90;;;;;;8331569;28;20414;-72
2023/07/26 14:09:00;;;;;;;;;;;20.00;99.90;;;;;;8331715;28;20466;-71
2023/07/26 14:13:01;;;;;;;;;;;20.10;99.90;;;;;;8347912;28;19967;-71
2023/07/26 14:17:04;;;;;;;;;;;20.20;99.90;;;;;;8333677;28;19925;-71
2023/07/26 14:21:05;;;;;;;;;;;20.30;99.90;;;;;;8328233;28;19928;-71
2023/07/26 14:25:07;;;;;;;;;;;20.30;99.90;;;;;;8326961;28;20265;-71
2023/07/26 14:29:10;;;;;;;;;;;20.20;99.90;;;;;;8322945;28;19936;-71
2023/07/26 14:33:12;;;;;;;;;;;20.10;99.90;;;;;;8322458;28;19932;-71
2023/07/26 14:37:15;;;;;;;;;;;20.10;99.90;;;;;;8334154;28;19925;-71
2023/07/26 14:41:18;;;;;;;;;;;20.10;99.90;;;;;;8327450;28;19929;-71
2023/07/26 14:45:19;;;;;;;;;;;20.10;99.90;;;;;;8327207;28;19977;-71
2023/07/26 14:49:22;;;;;;;;;;;20.30;99.90;;;;;;8323371;28;19925;-71
2023/07/26 14:53:24;;;;;;;;;;;20.50;99.90;;;;;;8332851;28;19929;-71
2023/07/26 14:57:26;;;;;;;;;;;20.50;99.90;;;;;;8339287;28;19932;-72
2023/07/26 15:01:27;;;;;;;;;;;20.60;99.90;;;;;;8341110;28;20377;-70
2023/07/26 15:05:29;;;;;;;;;;;20.60;99.90;;;;;;8333265;28;19925;-71
2023/07/26 15:09:31;;;;;;;;;;;20.70;99.90;;;;;;8338801;28;20636;-71
2023/07/26 15:13:33;;;;;;;;;;;20.80;99.90;;;;;;8335351;28;19994;-71
2023/07/26 15:17:34;;;;;;;;;;;20.70;99.90;;;;;;8352570;28;19932;-71
2023/07/26 15:21:36;;;;;;;;;;;20.60;99.90;;;;;;8335659;28;19929;-71
2023/07/26 15:25:38;;;;;;;;;;;20.70;99.90;;;;;;8331461;28;19975;-71
2023/07/26 15:29:39;;;;;;;;;;;20.70;99.90;;;;;;8333220;28;19931;-71
2023/07/26 15:33:41;;;;;;;;;;;20.70;99.90;;;;;;8331051;28;19929;-71
2023/07/26 15:37:43;;;;;;;;;;;20.80;99.90;;;;;;8338434;28;20011;-71
2023/07/26 15:41:44;;;;;;;;;;;20.60;99.90;;;;;;8330394;28;19955;-71
2023/07/26 15:46:06;;;;;;;;;;;20.60;99.90;;;;;;8345560;28;20032;-71
2023/07/26 15:50:28;;;;;;;;;;;20.90;99.90;;;;;;8330608;28;19925;-71
2023/07/26 15:54:30;;;;;;;;;;;21.10;99.90;;;;;;8330177;28;20435;-71
2023/07/26 15:58:31;;;;;;;;;;;21.20;99.90;;;;;;8332079;28;19929;-71
2023/07/26 16:02:34;;;;;;;;;;;21.30;99.90;;;;;;8333340;28;19991;-71
2023/07/26 16:06:55;;;;;;;;;;;21.60;99.90;;;;;;8334703;28;19929;-71
2023/07/26 16:11:00;;;;;;;;;;;21.90;99.90;;;;;;8330546;28;19925;-71
2023/07/26 16:15:02;;;;;;;;;;;22.20;99.90;;;;;;8347005;28;20375;-71
2023/07/26 16:19:07;;;;;;;;;;;22.50;99.90;;;;;;8330187;28;19997;-71
2023/07/26 16:23:11;;;;;;;;;;;22.80;99.90;;;;;;8329334;28;19940;-71
2023/07/26 16:27:13;;;;;;;;;;;23.10;99.90;;;;;;8325377;28;19977;-71
2023/07/26 16:31:15;;;;;;;;;;;23.50;99.90;;;;;;8326375;28;20369;-71
2023/07/26 16:35:18;;;;;;;;;;;23.60;99.90;;;;;;8327937;28;19928;-71
2023/07/26 16:39:20;;;;;;;;;;;23.50;99.90;;;;;;8332416;28;19932;-72
2023/07/26 16:43:22;;;;;;;;;;;23.50;99.90;;;;;;8347410;28;19936;-71
2023/07/26 16:47:23;;;;;;;;;;;23.40;99.90;;;;;;8327390;28;20384;-71
2023/07/26 16:51:25;;;;;;;;;;;23.30;99.90;;;;;;8342333;28;20338;-71
2023/07/26 17:05:41;;;;;;;;;;;22.80;99.90;;;;;;8327038;28;20285;-71
2023/07/26 17:09:43;;;;;;;;;;;22.50;99.90;;;;;;8328718;28;19932;-71
2023/07/26 17:13:45;;;;;;;;;;;22.20;99.90;;;;;;8341905;28;19974;-71
2023/07/26 17:17:46;;;;;;;;;;;22.10;99.90;;;;;;8346812;28;19936;-71
2023/07/26 17:21:48;;;;;;;;;;;22.10;99.90;;;;;;8328075;28;19932;-71
2023/07/26 17:25:52;;;;;;;;;;;21.80;99.00;;;;;;8330068;28;20383;-71
2023/07/26 17:29:54;;;;;;;;;;;21.70;99.80;;;;;;8333370;28;20387;-72
2023/07/26 17:33:56;;;;;;;;;;;21.60;99.90;;;;;;8312663;28;19929;-71
2023/07/26 17:37:57;;;;;;;;;;;21.50;99.90;;;;;;8336960;28;19929;-71
2023/07/26 17:41:59;;;;;;;;;;;21.40;99.70;;;;;;8342530;28;19925;-71
2023/07/26 17:46:02;;;;;;;;;;;21.40;99.50;;;;;;8328475;28;20320;-71
2023/07/26 17:50:04;;;;;;;;;;;21.30;99.00;;;;;;8327592;28;20367;-71
2023/07/26 17:54:05;;;;;;;;;;;21.20;99.10;;;;;;8326632;28;20000;-71
2023/07/26 17:58:07;;;;;;;;;;;21.20;99.90;;;;;;8330334;28;20361;-71
2023/07/26 18:02:13;;;;;;;;;;;21.20;99.90;;;;;;8332144;28;19935;-72
2023/07/26 18:06:16;;;;;;;;;;;21.00;99.30;;;;;;8326591;28;19925;-71
2023/07/26 18:10:17;;;;;;;;;;;21.00;99.90;;;;;;8328774;28;19929;-71
2023/07/26 18:14:21;;;;;;;;;;;20.90;99.90;;;;;;8324806;28;20392;-72
2023/07/26 18:18:23;;;;;;;;;;;20.80;99.90;;;;;;8336737;28;20382;-71
2023/07/26 18:22:25;;;;;;;;;;;20.80;99.90;;;;;;8325547;28;19925;-71
2023/07/26 18:26:26;;;;;;;;;;;20.70;99.90;;;;;;8329514;28;19925;-71
2023/07/26 18:30:28;;;;;;;;;;;20.60;99.90;;;;;;8327291;28;20465;-71
2023/07/26 18:34:31;;;;;;;;;;;20.50;99.90;;;;;;8347772;28;19932;-71
2023/07/26 18:48:39;;;;;;;;;;;20.30;99.90;;;;;;8326646;28;19976;-71
2023/07/26 19:02:47;;;;;;;;;;;20.10;99.90;;;;;;8338567;28;19919;-71
2023/07/26 19:06:49;;;;;;;;;;;20.00;99.90;;;;;;8342524;28;19935;-71
2023/07/26 19:10:53;;;;;;;;;;;19.90;99.90;;;;;;8325907;28;19956;-71
2023/07/26 19:14:55;;;;;;;;;;;19.80;99.90;;;;;;8328885;28;19929;-71
2023/07/26 19:18:56;;;;;;;;;;;19.80;99.90;;;;;;8328834;28;20384;-71
2023/07/26 19:23:02;;;;;;;;;;;19.70;99.90;;;;;;8333802;28;20375;-71
2023/07/26 19:27:04;;;;;;;;;;;19.60;99.90;;;;;;8329989;28;20346;-71
2023/07/26 19:31:05;;;;;;;;;;;19.50;99.90;;;;;;8328680;28;20296;-71
2023/07/26 19:35:07;;;;;;;;;;;19.40;99.90;;;;;;8327702;28;20337;-71
2023/07/26 19:39:10;;;;;;;;;;;19.30;99.90;;;;;;8330021;28;19928;-71
2023/07/26 19:43:12;;;;;;;;;;;19.20;99.90;;;;;;8334266;28;19932;-70
2023/07/26 19:47:13;;;;;;;;;;;19.20;99.90;;;;;;8332178;28;19925;-70
2023/07/26 19:51:16;;;;;;;;;;;19.10;99.90;;;;;;8347676;28;19956;-70
2023/07/26 19:55:17;;;;;;;;;;;19.00;99.90;;;;;;8331314;28;19936;-71
2023/07/26 19:59:19;;;;;;;;;;;19.00;99.90;;;;;;8347242;28;19932;-71
2023/07/26 20:03:21;;;;;;;;;;;18.90;99.90;;;;;;8334824;28;19929;-71
2023/07/26 20:07:23;;;;;;;;;;;18.90;99.90;;;;;;8337942;28;19940;-71
2023/07/26 20:11:25;;;;;;;;;;;18.80;99.90;;;;;;8331809;28;19929;-71
2023/07/26 20:15:27;;;;;;;;;;;18.80;99.90;;;;;;8334568;28;19979;-71
2023/07/26 20:19:28;;;;;;;;;;;18.70;99.90;;;;;;8330318;28;19925;-70
2023/07/26 20:23:30;;;;;;;;;;;18.70;99.90;;;;;;8336099;28;19929;-70
2023/07/26 20:27:32;;;;;;;;;;;18.60;99.90;;;;;;8335601;28;19929;-70
2023/07/26 20:31:33;;;;;;;;;;;18.50;99.90;;;;;;8330936;28;19956;-70
2023/07/26 20:35:36;;;;;;;;;;;18.50;99.90;;;;;;8351866;28;19932;-70
2023/07/26 20:39:37;;;;;;;;;;;18.40;99.90;;;;;;8331903;28;20519;-70
2023/07/26 20:43:39;;;;;;;;;;;18.40;99.90;;;;;;8331600;28;19995;-70
2023/07/26 20:47:41;;;;;;;;;;;18.30;99.90;;;;;;8346133;28;19929;-70
2023/07/26 20:51:44;;;;;;;;;;;18.20;99.90;;;;;;8325019;28;20040;-70
2023/07/26 20:55:45;;;;;;;;;;;18.20;99.90;;;;;;8328873;28;20347;-71
2023/07/26 20:59:47;;;;;;;;;;;18.10;99.90;;;;;;8333242;28;19925;-70
2023/07/26 21:03:49;;;;;;;;;;;18.10;99.90;;;;;;8373091;28;20386;-70
2023/07/26 21:07:51;;;;;;;;;;;18.00;99.90;;;;;;8390803;28;19932;-70
2023/07/26 21:11:52;;;;;;;;;;;17.90;99.90;;;;;;8395050;28;19924;-70
2023/07/26 21:15:54;;;;;;;;;;;17.90;99.90;;;;;;8363727;28;19928;-70
2023/07/26 21:19:56;;;;;;;;;;;17.90;99.90;;;;;;8368950;28;19987;-70
2023/07/26 21:23:57;;;;;;;;;;;17.80;99.90;;;;;;8358451;28;19929;-70
2023/07/26 21:27:59;;;;;;;;;;;17.80;99.90;;;;;;8383217;28;19958;-70
2023/07/26 21:32:01;;;;;;;;;;;17.70;99.90;;;;;;8384460;28;19925;-70
2023/07/26 21:36:04;;;;;;;;;;;17.70;99.90;;;;;;8369002;28;19924;-70
2023/07/26 21:40:05;;;;;;;;;;;17.70;99.90;;;;;;8360256;28;19985;-70
2023/07/26 21:44:09;;;;;;;;;;;17.70;99.90;;;;;;8383851;28;19928;-70
2023/07/26 21:48:11;;;;;;;;;;;17.70;99.90;;;;;;8385419;28;20349;-70
2023/07/26 21:52:12;;;;;;;;;;;17.60;99.90;;;;;;8387093;28;19925;-70
2023/07/26 22:01:19;;;;;;;;;;;17.50;99.90;;;;;;8380795;28;19923;-70
2023/07/26 22:11:02;;;;;;;;;;;17.40;99.90;;;;;;8365087;28;20252;-70
2023/07/26 22:15:04;;;;;;;;;;;17.30;99.90;;;;;;8381193;28;19925;-70
2023/07/26 22:19:06;;;;;;;;;;;17.30;99.90;;;;;;8380378;28;19924;-70
2023/07/26 22:23:08;;;;;;;;;;;17.30;99.90;;;;;;8370993;28;19925;-70
2023/07/26 22:27:09;;;;;;;;;;;17.30;99.90;;;;;;8370287;28;19928;-70
2023/07/26 22:31:11;;;;;;;;;;;17.30;99.90;;;;;;8374724;28;19959;-70
2023/07/26 22:35:13;;;;;;;;;;;17.30;99.90;;;;;;8382397;28;19929;-70
2023/07/26 22:39:15;;;;;;;;;;;17.20;99.90;;;;;;8389635;28;19975;-70
2023/07/26 22:43:16;;;;;;;;;;;17.20;99.90;;;;;;8392613;28;20292;-70
2023/07/26 22:47:18;;;;;;;;;;;17.20;99.90;;;;;;8370551;28;19932;-70
2023/07/26 22:51:21;;;;;;;;;;;17.20;99.90;;;;;;8387941;28;19936;-70
2023/07/26 22:55:23;;;;;;;;;;;17.20;99.90;;;;;;8371423;28;19928;-70
2023/07/26 22:59:25;;;;;;;;;;;17.20;99.90;;;;;;8375792;28;19925;-70
2023/07/26 23:03:26;;;;;;;;;;;17.20;99.90;;;;;;8371686;28;19924;-70
2023/07/26 23:07:28;;;;;;;;;;;17.20;99.90;;;;;;8381618;28;20369;-70
2023/07/26 23:11:30;;;;;;;;;;;17.20;99.90;;;;;;8390169;28;19925;-70
2023/07/26 23:15:32;;;;;;;;;;;17.20;99.90;;;;;;8387924;28;19964;-70
2023/07/26 23:19:34;;;;;;;;;;;17.10;99.90;;;;;;8385998;28;19931;-70
2023/07/26 23:23:35;;;;;;;;;;;17.10;99.90;;;;;;8375987;28;19925;-70
2023/07/26 23:27:37;;;;;;;;;;;17.10;99.90;;;;;;8390538;28;19936;-70
2023/07/26 23:31:38;;;;;;;;;;;17.10;99.90;;;;;;8386234;28;19928;-70
2023/07/26 23:35:50;;;;;;;;;;;17.00;99.90;;;;;;8380303;28;19933;-70
2023/07/26 23:39:52;;;;;;;;;;;17.10;99.90;;;;;;8385818;28;20466;-70
2023/07/26 23:43:54;;;;;;;;;;;17.00;99.90;;;;;;8376588;28;20001;-70
2023/07/26 23:47:56;;;;;;;;;;;17.00;99.90;;;;;;8380885;28;19925;-70
2023/07/26 23:51:57;;;;;;;;;;;17.00;99.90;;;;;;8376054;28;19928;-70
2023/07/26 23:55:59;;;;;;;;;;;17.00;99.90;;;;;;8377759;28;20260;-70
